Time;durP1;ratioP1;P1;durP2;ratioP2;P2;SDS_P1;SDS_P2;PMS_P1;PMS_P2;Temp;Humidity;BMP_temperature;BMP_pressure;BME280_temperature;BME280_humidity;BME280_pressure;Samples;Min_cycle;Max_cycle;Signal;HPM_P1;HPM_P2
2022/01/06 00:04:42;;;;;;;3.75;1.65;;;7.00;78.20;;;;;;5048333;28;20043;-83
2022/01/06 00:11:08;;;;;;;2.20;1.70;;;7.00;78.30;;;;;;5050634;28;20120;-84
2022/01/06 00:28:51;;;;;;;3.63;1.90;;;6.80;78.30;;;;;;5034645;28;20036;-83
2022/01/06 00:31:17;;;;;;;5.45;2.00;;;6.80;78.20;;;;;;5048861;28;20057;-84
2022/01/06 00:34:21;;;;;;;2.33;1.70;;;6.80;78.30;;;;;;5017236;28;20108;-83
2022/01/06 00:37:02;;;;;;;3.65;1.55;;;6.80;78.40;;;;;;5050049;28;20029;-83
2022/01/06 00:43:38;;;;;;;3.05;1.73;;;6.80;78.40;;;;;;5034660;28;20524;-84
2022/01/06 00:50:01;;;;;;;4.35;1.90;;;6.80;78.40;;;;;;5034841;28;20113;-84
2022/01/06 00:56:37;;;;;;;3.35;1.73;;;6.80;78.50;;;;;;5054528;28;20036;-83
2022/01/06 01:03:01;;;;;;;2.85;1.40;;;6.70;78.40;;;;;;5054495;28;20043;-83
2022/01/06 01:09:42;;;;;;;2.40;1.50;;;6.70;78.40;;;;;;5054343;28;20043;-83
2022/01/06 01:16:10;;;;;;;2.55;1.42;;;6.60;78.40;;;;;;5052978;28;20036;-83
2022/01/06 01:19:20;;;;;;;2.40;1.60;;;6.60;78.20;;;;;;5054232;28;20542;-83
2022/01/06 01:21:47;;;;;;;2.25;1.52;;;6.60;78.30;;;;;;5036238;28;20098;-83
2022/01/06 01:24:14;;;;;;;4.35;2.00;;;6.60;78.40;;;;;;5036257;28;20036;-83
2022/01/06 01:26:39;;;;;;;2.53;1.60;;;6.60;78.40;;;;;;5036692;28;20036;-83
2022/01/06 01:29:09;;;;;;;2.45;1.55;;;6.60;78.40;;;;;;5036646;28;20531;-83
2022/01/06 01:31:42;;;;;;;2.88;1.52;;;6.60;78.30;;;;;;5017795;28;20199;-83
2022/01/06 01:34:09;;;;;;;3.17;1.63;;;6.60;78.30;;;;;;5053747;28;20115;-84
2022/01/06 01:36:36;;;;;;;2.58;1.60;;;6.60;78.30;;;;;;5036610;28;20511;-83
2022/01/06 01:42:57;;;;;;;1.75;1.40;;;6.60;78.40;;;;;;5053610;28;20515;-85
2022/01/06 01:55:40;;;;;;;3.10;1.45;;;6.50;78.40;;;;;;5038004;28;20493;-84
2022/01/06 02:02:00;;;;;;;3.25;1.60;;;6.40;78.40;;;;;;5037749;28;20048;-83
2022/01/06 02:04:26;;;;;;;1.48;1.35;;;6.40;78.20;;;;;;5037619;28;20038;-84
2022/01/06 02:06:51;;;;;;;3.42;1.80;;;6.40;78.40;;;;;;5036771;28;20059;-83
2022/01/06 02:09:17;;;;;;;2.92;1.50;;;6.40;78.40;;;;;;5036551;28;20025;-83
2022/01/06 02:11:43;;;;;;;2.42;1.60;;;6.40;78.40;;;;;;5020290;28;20029;-83
2022/01/06 02:14:09;;;;;;;3.42;1.80;;;6.40;78.30;;;;;;5020202;28;20091;-83
2022/01/06 02:20:36;;;;;;;4.13;1.90;;;6.40;78.40;;;;;;5037826;28;20083;-84
2022/01/06 02:23:01;;;;;;;2.15;1.58;;;6.30;78.10;;;;;;5020117;28;20119;-84
2022/01/06 02:25:30;;;;;;;4.30;1.73;;;6.30;78.20;;;;;;5036442;28;20065;-84
2022/01/06 02:28:00;;;;;;;3.17;1.70;;;6.30;78.20;;;;;;5036302;28;20033;-83
2022/01/06 02:34:23;;;;;;;3.80;1.73;;;6.30;78.40;;;;;;5017628;28;20041;-83
2022/01/06 02:36:48;;;;;;;1.75;1.40;;;6.30;78.20;;;;;;5032479;28;20521;-83
2022/01/06 02:39:14;;;;;;;2.85;1.60;;;6.20;78.20;;;;;;5032984;28;20049;-83
2022/01/06 02:41:40;;;;;;;3.30;1.30;;;6.20;78.30;;;;;;5016435;28;20045;-83
2022/01/06 02:44:06;;;;;;;3.35;1.52;;;6.20;78.90;;;;;;5024105;28;20076;-84
2022/01/06 02:46:32;;;;;;;3.38;1.55;;;6.20;78.20;;;;;;5030781;28;20030;-83
2022/01/06 02:48:57;;;;;;;2.58;1.50;;;6.20;78.20;;;;;;5019444;28;20026;-83
2022/01/06 02:51:23;;;;;;;2.40;1.38;;;6.20;78.20;;;;;;5000655;28;20033;-84
2022/01/06 02:53:52;;;;;;;2.95;1.63;;;6.20;78.20;;;;;;5019181;28;20041;-84
2022/01/06 02:56:19;;;;;;;3.35;1.60;;;6.20;78.20;;;;;;5006695;28;20030;-84
2022/01/06 02:58:45;;;;;;;2.53;1.52;;;6.20;78.20;;;;;;5002628;28;20037;-84
2022/01/06 03:01:11;;;;;;;1.60;1.35;;;6.20;78.10;;;;;;5017564;28;20485;-84
2022/01/06 03:03:36;;;;;;;3.22;1.65;;;6.20;78.80;;;;;;4995464;28;20056;-84
2022/01/06 03:06:02;;;;;;;3.33;1.77;;;6.20;78.10;;;;;;5013558;28;20057;-84
2022/01/06 03:08:28;;;;;;;2.15;1.40;;;6.20;78.10;;;;;;5021831;28;20033;-84
2022/01/06 03:10:56;;;;;;;1.85;1.40;;;6.10;78.10;;;;;;5015626;28;20065;-84
2022/01/06 03:13:21;;;;;;;3.55;1.55;;;6.10;78.10;;;;;;5015839;28;20038;-84
2022/01/06 03:15:47;;;;;;;1.77;1.20;;;6.20;78.10;;;;;;5015389;28;20029;-83
2022/01/06 03:18:13;;;;;;;3.63;1.60;;;6.10;78.10;;;;;;5015596;28;20121;-83
2022/01/06 03:20:39;;;;;;;2.75;1.50;;;6.10;78.10;;;;;;5035295;28;20084;-84
2022/01/06 03:23:04;;;;;;;2.70;1.17;;;6.10;78.10;;;;;;5018463;28;20041;-84
2022/01/06 03:25:30;;;;;;;2.75;1.55;;;6.10;78.10;;;;;;5000659;28;20064;-84
2022/01/06 03:27:56;;;;;;;2.17;1.50;;;6.00;78.00;;;;;;5018910;28;20425;-84
2022/01/06 03:30:22;;;;;;;3.72;1.90;;;6.10;78.10;;;;;;5019103;28;20410;-84
2022/01/06 03:32:50;;;;;;;2.55;1.50;;;6.10;78.10;;;;;;5044895;28;20076;-83
2022/01/06 03:38:50;;;;;;;2.85;1.80;;;6.10;78.20;;;;;;5039406;28;20044;-83
2022/01/06 03:45:13;;;;;;;2.80;1.23;;;6.00;78.20;;;;;;5056413;28;20036;-83
2022/01/06 03:47:39;;;;;;;2.35;1.52;;;5.90;78.00;;;;;;5056154;28;20033;-84
2022/01/06 03:50:07;;;;;;;1.42;1.33;;;5.90;78.10;;;;;;5042118;28;20048;-83
2022/01/06 03:52:33;;;;;;;1.42;1.20;;;5.90;78.10;;;;;;5046649;28;20037;-83
2022/01/06 03:54:59;;;;;;;1.48;1.10;;;5.90;78.20;;;;;;5054262;28;20033;-83
2022/01/06 03:57:25;;;;;;;2.58;1.63;;;5.90;78.20;;;;;;5070307;28;20060;-83
2022/01/06 03:59:50;;;;;;;3.03;1.50;;;5.90;78.20;;;;;;5045744;28;20563;-84
2022/01/06 04:02:16;;;;;;;1.67;1.40;;;5.90;78.10;;;;;;5041094;28;20427;-83
2022/01/06 04:04:42;;;;;;;2.00;1.42;;;5.90;78.10;;;;;;5024580;28;20119;-83
2022/01/06 04:07:13;;;;;;;3.03;1.65;;;5.90;78.10;;;;;;5025001;28;20046;-83
2022/01/06 04:13:50;;;;;;;2.65;1.42;;;5.90;78.30;;;;;;5075704;28;20107;-83
2022/01/06 04:20:16;;;;;;;2.58;1.20;;;5.80;78.20;;;;;;5075432;28;20460;-83
2022/01/06 04:22:42;;;;;;;2.42;1.25;;;5.80;78.10;;;;;;5057369;28;20147;-84
2022/01/06 04:25:09;;;;;;;4.68;1.30;;;5.80;78.20;;;;;;5040936;28;20427;-84
2022/01/06 04:27:35;;;;;;;1.50;1.17;;;5.70;78.20;;;;;;5057256;28;20029;-84
2022/01/06 04:30:02;;;;;;;3.03;2.00;;;5.70;78.20;;;;;;5040913;28;20078;-84
2022/01/06 04:32:28;;;;;;;2.47;1.65;;;5.70;78.20;;;;;;5024693;28;20079;-84
2022/01/06 04:38:31;;;;;;;2.58;1.50;;;5.70;78.30;;;;;;5053525;28;20043;-83
2022/01/06 04:40:57;;;;;;;1.48;1.38;;;5.70;78.10;;;;;;5053732;28;20025;-83
2022/01/06 04:43:24;;;;;;;3.72;1.67;;;5.70;78.20;;;;;;5053870;28;20044;-83
2022/01/06 04:45:50;;;;;;;2.22;1.60;;;5.70;78.20;;;;;;5037348;28;20033;-83
2022/01/06 04:48:16;;;;;;;2.70;1.50;;;5.70;78.20;;;;;;5053807;28;20032;-85
2022/01/06 04:50:41;;;;;;;2.22;1.60;;;5.70;78.20;;;;;;5037152;28;20031;-83
2022/01/06 04:53:07;;;;;;;4.10;1.88;;;5.70;78.20;;;;;;5037569;28;20396;-83
2022/01/06 04:55:33;;;;;;;2.28;1.40;;;5.70;78.10;;;;;;5036732;28;20033;-83
2022/01/06 04:57:59;;;;;;;2.00;1.45;;;5.70;78.10;;;;;;5053484;28;20461;-83
2022/01/06 05:00:25;;;;;;;2.20;1.50;;;5.70;78.10;;;;;;5053394;28;20397;-83
2022/01/06 05:02:50;;;;;;;2.33;1.33;;;5.70;78.10;;;;;;5053311;28;20087;-83
2022/01/06 05:05:16;;;;;;;2.58;1.45;;;5.70;78.10;;;;;;5039343;28;20099;-83
2022/01/06 05:07:42;;;;;;;1.80;1.30;;;5.60;78.00;;;;;;5039696;28;20120;-83
2022/01/06 05:10:09;;;;;;;2.53;1.35;;;5.60;78.00;;;;;;5016281;28;20049;-83
2022/01/06 05:12:39;;;;;;;1.50;1.27;;;5.60;78.00;;;;;;5032791;28;20056;-83
2022/01/06 05:15:05;;;;;;;1.65;1.40;;;5.60;78.10;;;;;;5036439;28;20033;-82
2022/01/06 05:17:31;;;;;;;2.85;1.30;;;5.60;78.00;;;;;;5015571;28;20474;-83
2022/01/06 05:19:57;;;;;;;2.08;1.38;;;5.60;78.00;;;;;;5031016;28;20029;-83
2022/01/06 05:22:22;;;;;;;2.90;1.58;;;5.60;78.70;;;;;;5019863;28;20082;-83
2022/01/06 05:24:48;;;;;;;2.20;1.40;;;5.50;78.00;;;;;;5031067;28;20037;-83
2022/01/06 05:27:14;;;;;;;2.60;1.50;;;5.50;78.00;;;;;;5027255;28;20037;-83
2022/01/06 05:29:40;;;;;;;1.80;1.38;;;5.50;78.00;;;;;;5003252;28;20033;-83
2022/01/06 05:32:06;;;;;;;2.42;1.40;;;5.50;78.00;;;;;;5035965;28;20053;-83
2022/01/06 05:34:32;;;;;;;3.58;1.30;;;5.50;78.00;;;;;;5035672;28;20060;-84
2022/01/06 05:36:58;;;;;;;3.10;1.50;;;5.50;78.00;;;;;;5052299;28;20474;-82
2022/01/06 05:39:24;;;;;;;1.77;1.30;;;5.50;78.00;;;;;;5010452;28;20025;-83
2022/01/06 05:41:49;;;;;;;2.75;1.55;;;5.50;78.00;;;;;;5059406;28;20556;-83
2022/01/06 05:44:15;;;;;;;2.42;1.35;;;5.50;78.00;;;;;;5009984;28;20056;-83
2022/01/06 05:46:42;;;;;;;2.35;1.40;;;5.50;78.00;;;;;;5036824;28;20450;-82
2022/01/06 05:49:08;;;;;;;1.70;1.50;;;5.50;78.00;;;;;;5044295;28;20047;-87
2022/01/06 05:51:34;;;;;;;2.30;1.60;;;5.40;77.90;;;;;;5030704;28;20025;-83
2022/01/06 05:54:00;;;;;;;1.50;1.30;;;5.40;77.90;;;;;;5045687;28;20040;-83
2022/01/06 05:56:27;;;;;;;1.98;1.30;;;5.40;77.90;;;;;;5025003;28;20080;-83
2022/01/06 05:58:53;;;;;;;4.03;1.80;;;5.40;77.90;;;;;;5006206;28;20030;-83
2022/01/06 06:01:19;;;;;;;2.08;1.58;;;5.40;78.20;;;;;;5033731;28;20448;-82
2022/01/06 06:03:44;;;;;;;2.15;1.40;;;5.30;77.80;;;;;;5022022;28;20036;-83
2022/01/06 06:06:10;;;;;;;2.70;1.90;;;5.30;77.80;;;;;;5053195;28;20082;-81
2022/01/06 06:08:36;;;;;;;1.92;1.73;;;5.40;78.50;;;;;;5015612;28;20373;-84
2022/01/06 06:11:02;;;;;;;2.38;1.42;;;5.30;77.80;;;;;;5053876;28;20481;-86
2022/01/06 06:13:27;;;;;;;2.25;1.60;;;5.30;77.80;;;;;;5027764;28;20037;-85
2022/01/06 06:15:53;;;;;;;2.25;1.50;;;5.30;77.90;;;;;;5042648;28;20056;-87
2022/01/06 06:18:19;;;;;;;2.28;1.45;;;5.30;77.80;;;;;;5021204;28;20106;-79
2022/01/06 06:20:45;;;;;;;2.85;1.60;;;5.30;77.90;;;;;;5044136;28;20029;-86
2022/01/06 06:23:11;;;;;;;3.42;1.83;;;5.30;77.80;;;;;;5041258;28;20025;-82
2022/01/06 06:25:36;;;;;;;3.00;1.58;;;5.30;77.90;;;;;;5027500;28;20103;-82
2022/01/06 06:28:02;;;;;;;2.13;1.50;;;5.20;77.80;;;;;;5034347;28;20032;-81
2022/01/06 06:30:28;;;;;;;2.40;1.48;;;5.20;78.50;;;;;;5048763;28;20100;-84
2022/01/06 06:32:54;;;;;;;1.55;1.33;;;5.20;77.80;;;;;;5051492;28;20075;-82
2022/01/06 06:35:20;;;;;;;1.75;1.25;;;5.20;77.80;;;;;;5037900;28;20530;-83
2022/01/06 06:37:46;;;;;;;2.67;1.50;;;5.20;77.80;;;;;;5048090;28;20029;-83
2022/01/06 06:40:12;;;;;;;3.78;1.60;;;5.20;77.80;;;;;;5032904;28;20067;-83
2022/01/06 06:42:38;;;;;;;3.13;1.75;;;5.20;77.80;;;;;;5013836;28;20549;-84
2022/01/06 06:45:04;;;;;;;2.33;1.60;;;5.20;77.80;;;;;;5066435;28;20385;-87
2022/01/06 06:47:31;;;;;;;4.93;1.77;;;5.10;77.70;;;;;;5047012;28;20145;-82
2022/01/06 06:49:59;;;;;;;1.83;1.33;;;5.10;77.70;;;;;;5022936;28;20043;-83
2022/01/06 06:52:25;;;;;;;1.98;1.50;;;5.10;77.70;;;;;;5029835;28;20033;-81
2022/01/06 06:54:53;;;;;;;3.40;1.40;;;5.10;77.80;;;;;;5064548;28;20053;-83
2022/01/06 06:57:19;;;;;;;3.92;1.92;;;5.10;77.70;;;;;;5032708;28;20035;-84
2022/01/06 06:59:45;;;;;;;3.15;1.60;;;5.10;77.70;;;;;;5049157;28;20029;-83
2022/01/06 07:02:11;;;;;;;3.25;1.77;;;5.00;77.70;;;;;;5061479;28;20050;-85
2022/01/06 07:04:36;;;;;;;3.15;1.50;;;5.00;77.70;;;;;;5028873;28;20017;-81
2022/01/06 07:07:02;;;;;;;1.92;1.45;;;5.00;77.70;;;;;;5029432;28;20128;-81
2022/01/06 07:09:28;;;;;;;3.05;1.50;;;5.00;77.70;;;;;;5022788;28;20072;-85
2022/01/06 07:11:54;;;;;;;3.38;1.50;;;5.00;77.70;;;;;;5037070;28;20120;-82
2022/01/06 07:14:20;;;;;;;4.85;1.70;;;5.00;78.40;;;;;;5029972;28;20542;-84
2022/01/06 07:16:46;;;;;;;2.47;1.48;;;5.00;77.80;;;;;;5028623;28;20461;-83
2022/01/06 07:19:11;;;;;;;2.03;1.58;;;5.00;77.70;;;;;;5036241;28;20025;-83
2022/01/06 07:21:37;;;;;;;3.30;1.75;;;5.00;77.70;;;;;;5009451;28;20045;-84
2022/01/06 07:24:05;;;;;;;2.05;1.50;;;4.90;77.70;;;;;;4999471;28;20112;-82
2022/01/06 07:26:31;;;;;;;2.95;1.52;;;5.00;77.80;;;;;;5034152;28;20052;-82
2022/01/06 07:28:56;;;;;;;3.45;1.70;;;4.90;77.70;;;;;;5035106;28;20024;-82
2022/01/06 07:31:22;;;;;;;3.28;1.65;;;4.90;77.70;;;;;;5036613;28;20052;-81
2022/01/06 07:33:48;;;;;;;2.20;1.58;;;4.90;77.70;;;;;;5067736;28;20059;-81
2022/01/06 07:36:14;;;;;;;2.63;1.60;;;4.90;77.70;;;;;;5063000;28;20040;-85
2022/01/06 07:38:40;;;;;;;4.05;1.70;;;4.90;77.70;;;;;;5012427;28;20087;-83
2022/01/06 07:41:06;;;;;;;2.55;1.70;;;4.90;77.70;;;;;;5048506;28;20051;-83
2022/01/06 07:43:32;;;;;;;1.75;1.40;;;4.90;77.70;;;;;;5026342;28;20033;-86
2022/01/06 07:45:58;;;;;;;2.70;1.60;;;4.90;77.70;;;;;;5045070;28;20035;-85
2022/01/06 07:48:36;;;;;;;2.00;1.50;;;4.90;77.70;;;;;;5020322;28;20371;-83
2022/01/06 07:51:03;;;;;;;2.88;1.70;;;4.90;77.70;;;;;;5022692;28;20024;-80
2022/01/06 07:53:28;;;;;;;2.03;1.42;;;4.90;77.70;;;;;;5028395;28;20063;-82
2022/01/06 07:55:54;;;;;;;1.90;1.50;;;4.80;77.70;;;;;;5021129;28;20064;-84
2022/01/06 07:58:20;;;;;;;3.13;1.50;;;4.80;77.70;;;;;;5029462;28;20029;-83
2022/01/06 08:00:46;;;;;;;1.70;1.60;;;4.80;77.70;;;;;;5064303;28;20036;-83
2022/01/06 08:03:11;;;;;;;1.98;1.50;;;4.80;77.70;;;;;;5016537;28;20106;-83
2022/01/06 08:05:37;;;;;;;3.65;1.80;;;4.80;77.70;;;;;;5043186;28;20379;-82
2022/01/06 08:08:03;;;;;;;2.92;1.77;;;4.80;77.60;;;;;;5053319;28;20029;-82
2022/01/06 08:10:29;;;;;;;2.13;1.60;;;4.70;77.60;;;;;;5054923;28;20060;-82
2022/01/06 08:12:55;;;;;;;3.53;1.90;;;4.70;77.60;;;;;;5043849;28;20041;-83
2022/01/06 08:15:20;;;;;;;2.60;1.70;;;4.70;77.60;;;;;;5041776;28;20033;-83
2022/01/06 08:17:46;;;;;;;3.05;1.80;;;4.70;77.60;;;;;;5024023;28;20028;-83
2022/01/06 08:20:12;;;;;;;3.15;1.65;;;4.70;77.60;;;;;;5028046;28;20032;-82
2022/01/06 08:22:38;;;;;;;2.25;1.70;;;4.70;77.70;;;;;;5060798;28;20094;-82
2022/01/06 08:25:06;;;;;;;3.03;1.70;;;4.70;77.70;;;;;;5011304;28;20042;-85
2022/01/06 08:27:32;;;;;;;3.00;1.60;;;4.70;77.70;;;;;;5040012;28;20028;-83
2022/01/06 08:29:59;;;;;;;2.67;1.63;;;4.70;77.60;;;;;;5027115;28;20091;-83
2022/01/06 08:32:24;;;;;;;2.95;1.92;;;4.70;77.70;;;;;;5048853;28;20045;-83
2022/01/06 08:34:50;;;;;;;2.28;1.60;;;4.70;77.60;;;;;;5041099;28;20484;-84
2022/01/06 08:37:16;;;;;;;2.45;1.48;;;4.60;77.60;;;;;;5045818;28;20111;-83
2022/01/06 08:39:42;;;;;;;2.38;1.50;;;4.70;77.70;;;;;;5020488;28;20068;-83
2022/01/06 08:42:08;;;;;;;2.85;1.80;;;4.60;77.60;;;;;;5009651;28;20413;-83
2022/01/06 08:44:35;;;;;;;2.40;1.67;;;4.60;77.60;;;;;;5045467;28;20032;-83
2022/01/06 08:47:01;;;;;;;1.83;1.50;;;4.60;77.60;;;;;;5026996;28;20024;-83
2022/01/06 08:49:29;;;;;;;2.83;1.80;;;4.60;77.60;;;;;;5060463;28;20079;-83
2022/01/06 08:51:55;;;;;;;2.15;1.70;;;4.60;77.60;;;;;;5030869;28;20537;-84
2022/01/06 08:54:20;;;;;;;2.85;1.95;;;4.60;77.60;;;;;;5047192;28;20133;-86
2022/01/06 08:56:46;;;;;;;3.67;1.50;;;4.60;77.60;;;;;;5031666;28;20037;-84
2022/01/06 08:59:12;;;;;;;3.70;1.80;;;4.60;77.60;;;;;;5027527;28;20514;-83
2022/01/06 09:01:38;;;;;;;2.90;1.70;;;4.60;77.60;;;;;;5059230;28;20037;-84
2022/01/06 09:04:04;;;;;;;2.03;1.60;;;4.60;77.70;;;;;;5044700;28;20041;-84
2022/01/06 09:06:29;;;;;;;2.92;1.70;;;4.50;77.60;;;;;;5043222;28;20029;-84
2022/01/06 09:08:55;;;;;;;2.75;1.73;;;4.50;77.60;;;;;;5069371;28;20039;-83
2022/01/06 09:11:21;;;;;;;2.35;1.80;;;4.60;77.70;;;;;;5027525;28;20044;-83
2022/01/06 09:13:47;;;;;;;1.50;1.40;;;4.60;77.70;;;;;;5024007;28;20367;-84
2022/01/06 09:16:13;;;;;;;3.05;1.85;;;4.60;77.70;;;;;;5034511;28;20454;-83
2022/01/06 09:18:40;;;;;;;2.28;1.73;;;4.60;77.70;;;;;;5044417;28;20466;-83
2022/01/06 09:21:07;;;;;;;2.58;1.60;;;4.60;77.70;;;;;;5018511;28;20047;-83
2022/01/06 09:23:34;;;;;;;3.78;1.70;;;4.60;77.70;;;;;;5055763;28;20029;-83
2022/01/06 09:25:59;;;;;;;2.75;1.55;;;4.60;77.70;;;;;;5010220;28;20033;-86
2022/01/06 09:28:26;;;;;;;1.63;1.50;;;4.60;77.70;;;;;;5026355;28;20033;-84
2022/01/06 09:30:51;;;;;;;3.05;1.70;;;4.60;77.80;;;;;;5026717;28;20031;-85
2022/01/06 09:33:19;;;;;;;3.15;1.60;;;4.60;77.80;;;;;;5043274;28;20049;-86
2022/01/06 09:35:46;;;;;;;2.30;1.77;;;4.60;77.80;;;;;;5045936;28;20047;-83
2022/01/06 09:38:13;;;;;;;3.25;1.80;;;4.60;77.80;;;;;;5042073;28;20032;-82
2022/01/06 09:40:41;;;;;;;2.65;1.60;;;4.60;77.80;;;;;;5037684;28;20021;-85
2022/01/06 09:43:07;;;;;;;3.03;1.80;;;4.60;77.80;;;;;;5037813;28;20056;-84
2022/01/06 09:45:35;;;;;;;1.73;1.60;;;4.60;77.80;;;;;;5016601;28;20045;-84
2022/01/06 09:48:01;;;;;;;4.03;1.90;;;4.60;77.90;;;;;;5063427;28;20025;-85
2022/01/06 09:50:27;;;;;;;2.53;1.70;;;4.60;77.90;;;;;;5028664;28;20020;-84
2022/01/06 09:52:53;;;;;;;3.03;1.77;;;4.60;77.90;;;;;;5058578;28;20036;-84
2022/01/06 09:55:20;;;;;;;1.88;1.60;;;4.70;78.00;;;;;;5032726;28;20021;-88
2022/01/06 09:57:57;;;;;;;3.17;2.15;;;4.60;77.90;;;;;;5034898;28;20056;-84
2022/01/06 10:00:24;;;;;;;3.17;1.80;;;4.70;78.00;;;;;;5035449;28;20123;-85
2022/01/06 10:02:56;;;;;;;4.43;1.90;;;4.60;77.90;;;;;;5035222;28;20080;-84
2022/01/06 10:05:22;;;;;;;2.08;1.60;;;4.70;78.10;;;;;;5050265;28;20033;-89
2022/01/06 10:07:48;;;;;;;2.65;1.67;;;4.70;78.00;;;;;;5019373;28;20029;-86
2022/01/06 10:10:15;;;;;;;3.03;1.90;;;4.70;78.00;;;;;;5011356;28;20120;-87
2022/01/06 10:12:42;;;;;;;2.67;1.80;;;4.70;78.00;;;;;;5039414;28;20033;-85
2022/01/06 10:15:20;;;;;;;2.38;1.70;;;4.70;78.10;;;;;;5045710;28;20029;-84
2022/01/06 10:17:47;;;;;;;2.90;1.70;;;4.70;78.10;;;;;;5033940;28;20048;-86
2022/01/06 10:20:15;;;;;;;2.75;1.63;;;4.70;78.00;;;;;;5067465;28;20104;-86
2022/01/06 10:22:53;;;;;;;2.78;1.85;;;4.70;78.10;;;;;;5054888;28;20060;-87
2022/01/06 10:25:21;;;;;;;3.05;1.88;;;4.80;78.20;;;;;;5033548;28;20032;-87
2022/01/06 10:27:49;;;;;;;2.42;1.70;;;4.70;78.10;;;;;;5044991;28;20062;-88
2022/01/06 10:30:16;;;;;;;3.45;1.95;;;4.80;78.20;;;;;;5025290;28;20017;-87
2022/01/06 10:32:43;;;;;;;3.83;1.77;;;4.80;78.20;;;;;;5029397;28;20053;-88
2022/01/06 10:35:10;;;;;;;2.47;1.60;;;4.80;78.20;;;;;;5063853;28;20465;-87
2022/01/06 10:37:48;;;;;;;2.05;1.73;;;4.80;78.20;;;;;;5019905;28;20450;-87
2022/01/06 10:40:25;;;;;;;2.78;1.67;;;4.80;78.20;;;;;;5033145;28;20158;-88
2022/01/06 10:43:05;;;;;;;2.03;1.60;;;4.80;78.30;;;;;;5049679;28;20496;-88
2022/01/06 10:45:34;;;;;;;2.15;1.80;;;4.80;78.20;;;;;;5026963;28;20064;-89
2022/01/06 10:48:02;;;;;;;2.33;1.75;;;4.90;78.30;;;;;;5022874;28;20029;-87
2022/01/06 10:50:34;;;;;;;2.50;1.65;;;4.80;78.20;;;;;;5049206;28;20025;-87
2022/01/06 10:53:07;;;;;;;3.00;1.50;;;4.80;78.30;;;;;;5049475;28;20029;-88
2022/01/06 10:55:36;;;;;;;1.75;1.50;;;4.90;78.30;;;;;;5035273;28;20052;-88
2022/01/06 10:58:09;;;;;;;1.45;1.35;;;4.90;78.30;;;;;;5038283;28;20017;-88
2022/01/06 11:00:40;;;;;;;2.35;1.60;;;4.90;79.00;;;;;;5063456;28;20470;-90
2022/01/06 11:03:13;;;;;;;2.10;1.55;;;5.00;78.40;;;;;;5042081;28;20044;-88
2022/01/06 11:05:54;;;;;;;2.50;1.50;;;4.90;78.40;;;;;;5050938;28;20037;-87
2022/01/06 11:08:28;;;;;;;3.03;1.77;;;5.00;78.40;;;;;;5047175;28;20036;-87
2022/01/06 11:11:15;;;;;;;1.80;1.63;;;5.00;78.40;;;;;;5039311;28;20091;-88
2022/01/06 11:13:47;;;;;;;1.65;1.52;;;5.00;78.40;;;;;;5047966;28;20283;-87
2022/01/06 11:16:15;;;;;;;2.45;1.52;;;5.00;78.40;;;;;;5029830;28;20029;-87
2022/01/06 11:18:47;;;;;;;3.22;1.60;;;5.00;78.40;;;;;;5029018;28;20373;-88
2022/01/06 11:21:16;;;;;;;2.15;1.70;;;5.00;78.50;;;;;;5060263;28;20024;-89
2022/01/06 11:23:44;;;;;;;1.65;1.52;;;5.00;78.50;;;;;;5024868;28;20078;-89
2022/01/06 11:26:17;;;;;;;2.60;1.60;;;5.10;78.50;;;;;;5050230;28;20052;-91
2022/01/06 11:28:52;;;;;;;2.03;1.58;;;5.10;78.50;;;;;;5076648;28;20032;-90
2022/01/06 11:31:21;;;;;;;2.50;1.58;;;5.10;78.50;;;;;;5062870;28;20033;-88
2022/01/06 11:33:50;;;;;;;2.30;1.77;;;5.10;78.50;;;;;;5012674;28;20051;-88
2022/01/06 11:36:32;;;;;;;1.88;1.60;;;5.10;78.50;;;;;;5037448;28;20033;-88
2022/01/06 11:39:02;;;;;;;1.95;1.50;;;5.20;78.60;;;;;;5025045;28;20079;-87
2022/01/06 11:41:35;;;;;;;3.45;1.80;;;5.20;78.60;;;;;;5033069;28;20036;-87
2022/01/06 11:44:02;;;;;;;2.35;1.77;;;5.30;78.70;;;;;;5041366;28;20041;-88
2022/01/06 11:46:45;;;;;;;2.20;1.60;;;5.30;78.70;;;;;;5057369;28;20041;-88
2022/01/06 11:49:13;;;;;;;2.95;1.70;;;5.30;78.70;;;;;;5038154;28;20029;-89
2022/01/06 11:51:40;;;;;;;3.65;2.00;;;5.30;78.60;;;;;;5028434;28;20033;-90
2022/01/06 11:54:19;;;;;;;2.75;1.73;;;5.30;78.70;;;;;;5029358;28;20024;-89
2022/01/06 11:56:50;;;;;;;3.08;1.55;;;5.30;78.80;;;;;;5029272;28;20030;-88
2022/01/06 11:59:31;;;;;;;2.50;1.70;;;5.40;78.80;;;;;;5058398;28;20459;-87
2022/01/06 12:02:10;;;;;;;2.95;1.70;;;5.40;78.90;;;;;;5033957;28;20095;-88
2022/01/06 12:04:38;;;;;;;2.90;1.80;;;5.40;78.80;;;;;;5048368;28;20046;-88
2022/01/06 12:07:08;;;;;;;2.03;1.50;;;5.40;78.80;;;;;;5033235;28;20164;-88
2022/01/06 12:09:35;;;;;;;2.45;1.98;;;5.40;78.80;;;;;;5042433;28;20062;-88
2022/01/06 12:12:11;;;;;;;1.83;1.60;;;5.50;78.80;;;;;;5023023;28;20024;-87
2022/01/06 12:14:37;;;;;;;2.78;1.67;;;5.50;78.90;;;;;;5052148;28;20480;-84
2022/01/06 12:17:26;;;;;;;3.05;1.80;;;5.50;78.80;;;;;;5064865;28;20013;-89
2022/01/06 12:19:53;;;;;;;2.10;1.77;;;5.50;78.80;;;;;;5039447;28;20033;-86
2022/01/06 12:22:24;;;;;;;2.35;1.70;;;5.50;79.50;;;;;;5029027;28;20018;-87
2022/01/06 12:25:05;;;;;;;1.90;1.67;;;5.60;78.90;;;;;;5046504;28;20041;-81
2022/01/06 12:27:35;;;;;;;2.50;1.63;;;5.60;78.90;;;;;;5021497;28;20048;-88
2022/01/06 12:30:10;;;;;;;2.13;1.80;;;5.60;78.90;;;;;;5050730;28;20029;-89
2022/01/06 12:36:34;;;;;;;2.20;1.50;;;5.70;79.10;;;;;;5055216;28;20036;-85
2022/01/06 12:39:40;;;;;;;2.50;1.70;;;5.70;78.90;;;;;;5023826;28;20549;-91
2022/01/06 12:42:24;;;;;;;3.28;2.00;;;5.70;79.00;;;;;;5035651;28;20033;-90
2022/01/06 12:44:54;;;;;;;3.60;1.75;;;5.70;78.90;;;;;;5044229;28;20029;-88
2022/01/06 12:47:29;;;;;;;2.80;1.95;;;5.80;79.00;;;;;;5050773;28;20021;-87
2022/01/06 12:50:05;;;;;;;3.95;2.20;;;5.80;79.00;;;;;;5042453;28;20038;-89
2022/01/06 12:52:41;;;;;;;;;;;;;;;;;;;;;
2022/01/06 12:55:32;;;;;;;1.88;1.50;;;5.80;79.00;;;;;;5048355;28;20048;-86
2022/01/06 12:58:00;;;;;;;;;;;5.90;79.00;;;;;;5035930;28;20102;-87
2022/01/06 13:00:25;;;;;;;3.72;1.45;;;5.90;79.00;;;;;;5063467;28;19999;-83
2022/01/06 13:02:56;;;;;;;2.92;1.70;;;6.00;78.90;;;;;;5036575;28;20215;-83
2022/01/06 13:05:25;;;;;;;2.65;1.60;;;6.00;79.00;;;;;;5052210;28;20048;-86
2022/01/06 13:08:03;;;;;;;3.10;1.80;;;6.00;79.00;;;;;;5002592;28;20021;-85
2022/01/06 13:10:29;;;;;;;2.15;1.70;;;6.10;79.10;;;;;;5016823;28;20180;-84
2022/01/06 13:13:04;;;;;;;3.25;1.90;;;6.10;79.00;;;;;;5033317;28;20053;-86
2022/01/06 13:15:32;;;;;;;3.05;1.70;;;6.10;79.00;;;;;;5017884;28;20400;-90
2022/01/06 13:17:58;;;;;;;2.05;1.63;;;6.20;79.10;;;;;;5030652;28;20025;-87
2022/01/06 13:20:24;;;;;;;2.35;1.60;;;6.20;79.00;;;;;;5034454;28;20437;-85
2022/01/06 13:25:25;;;;;;;2.17;1.80;;;6.30;79.00;;;;;;5067427;28;20536;-86
2022/01/06 13:27:59;;;;;;;2.47;1.70;;;6.30;79.00;;;;;;5028775;28;20498;-83
2022/01/06 13:30:47;;;;;;;2.55;1.65;;;6.30;79.00;;;;;;5043119;28;20048;-84
2022/01/06 13:33:22;;;;;;;2.67;1.90;;;6.40;79.00;;;;;;5043463;28;20493;-86
2022/01/06 13:35:48;;;;;;;2.13;1.40;;;6.40;79.00;;;;;;5025898;28;20085;-86
2022/01/06 13:38:20;;;;;;;2.28;1.70;;;6.40;79.00;;;;;;5048385;28;20032;-86
2022/01/06 13:40:52;;;;;;;1.83;1.60;;;6.50;79.10;;;;;;5045170;28;20052;-85
2022/01/06 13:43:23;;;;;;;4.63;1.92;;;6.50;79.10;;;;;;5059274;28;20044;-85
2022/01/06 13:45:50;;;;;;;2.92;1.60;;;6.50;79.10;;;;;;5060407;28;20503;-87
2022/01/06 13:48:43;;;;;;;2.92;2.08;;;6.60;79.10;;;;;;5053120;28;20078;-85
2022/01/06 13:51:12;;;;;;;3.45;1.85;;;6.60;79.10;;;;;;5029359;28;20040;-85
2022/01/06 13:53:46;;;;;;;2.45;1.90;;;6.60;79.00;;;;;;5048650;28;20025;-85
2022/01/06 13:56:19;;;;;;;2.42;1.60;;;6.60;79.00;;;;;;5062974;28;20076;-86
2022/01/06 13:58:50;;;;;;;2.25;1.60;;;6.70;79.10;;;;;;5046153;28;20044;-86
2022/01/06 14:01:21;;;;;;;3.95;1.70;;;6.70;79.10;;;;;;5040380;28;20056;-86
2022/01/06 14:03:46;;;;;;;1.98;1.52;;;6.70;79.10;;;;;;5031127;28;20037;-85
2022/01/06 14:06:15;;;;;;;2.42;1.60;;;6.80;79.10;;;;;;5029840;28;20124;-85
2022/01/06 14:08:42;;;;;;;1.98;1.50;;;6.80;79.10;;;;;;5037335;28;20060;-86
2022/01/06 14:11:09;;;;;;;1.70;1.40;;;6.90;79.20;;;;;;5029362;28;20447;-86
2022/01/06 14:13:36;;;;;;;3.83;1.85;;;6.90;79.80;;;;;;5063332;28;20493;-86
2022/01/06 14:16:02;;;;;;;2.80;1.80;;;6.90;79.10;;;;;;5063128;28;20043;-88
2022/01/06 14:18:29;;;;;;;3.03;1.80;;;6.90;79.10;;;;;;5045807;28;20037;-87
2022/01/06 14:20:55;;;;;;;2.92;1.65;;;7.00;79.10;;;;;;5018790;28;20021;-86
2022/01/06 14:23:23;;;;;;;2.08;1.60;;;7.00;79.10;;;;;;5033763;28;20053;-86
2022/01/06 14:25:50;;;;;;;3.80;1.83;;;7.00;79.10;;;;;;5046035;28;20021;-86
2022/01/06 14:28:16;;;;;;;3.03;1.60;;;7.10;79.10;;;;;;5021366;28;20053;-86
2022/01/06 14:30:44;;;;;;;3.53;1.80;;;7.10;79.00;;;;;;5053658;28;20029;-87
2022/01/06 14:33:10;;;;;;;2.47;1.75;;;7.10;79.00;;;;;;5023508;28;20395;-85
2022/01/06 14:35:37;;;;;;;3.78;1.60;;;7.20;79.00;;;;;;5035138;28;20040;-89
2022/01/06 14:38:04;;;;;;;2.22;1.60;;;7.20;79.00;;;;;;5016805;28;20038;-85
2022/01/06 14:40:30;;;;;;;2.97;1.80;;;7.20;79.00;;;;;;5010301;28;20105;-86
2022/01/06 14:42:58;;;;;;;1.77;1.50;;;7.20;78.90;;;;;;4994766;28;20383;-86